Time;durP1;ratioP1;P1;durP2;ratioP2;P2;SDS_P1;SDS_P2;PMS_P1;PMS_P2;Temp;Humidity;BMP_temperature;BMP_pressure;BME280_temperature;BME280_humidity;BME280_pressure;Samples;Min_cycle;Max_cycle;Signal;HPM_P1;HPM_P2
2022/05/21 00:02:07;;;;;;;60.17;12.15;;;;;;;;;;5021801;28;20030;-53
2022/05/21 00:04:36;;;;;;;44.60;10.88;;;;;;;;;;5019510;28;20045;-56
2022/05/21 00:07:04;;;;;;;48.53;11.45;;;;;;;;;;5020196;28;20048;-51
2022/05/21 00:09:31;;;;;;;54.13;13.25;;;;;;;;;;5023546;28;20028;-53
2022/05/21 00:11:58;;;;;;;57.75;11.40;;;;;;;;;;5022276;28;20025;-48
2022/05/21 00:14:25;;;;;;;54.60;11.65;;;;;;;;;;5017390;28;20030;-51
2022/05/21 00:16:52;;;;;;;48.70;12.32;;;;;;;;;;5019920;28;20384;-51
2022/05/21 00:19:19;;;;;;;45.35;11.15;;;;;;;;;;5021244;28;20503;-47
2022/05/21 00:21:46;;;;;;;57.20;12.13;;;;;;;;;;5021159;28;20030;-46
2022/05/21 00:24:13;;;;;;;74.20;13.45;;;;;;;;;;5021389;28;20078;-52
2022/05/21 00:26:40;;;;;;;59.08;11.60;;;;;;;;;;5019274;28;20057;-49
2022/05/21 00:29:07;;;;;;;60.05;12.35;;;;;;;;;;5021508;28;20034;-46
2022/05/21 00:31:34;;;;;;;63.53;12.05;;;;;;;;;;5032910;28;20032;-47
2022/05/21 00:34:01;;;;;;;64.18;13.30;;;;;;;;;;5032824;28;20036;-47
2022/05/21 00:36:29;;;;;;;64.68;13.48;;;;;;;;;;5032800;28;20045;-48
2022/05/21 00:38:57;;;;;;;77.25;15.88;;;;;;;;;;5013365;28;20116;-49
2022/05/21 00:41:24;;;;;;;74.15;17.33;;;;;;;;;;5013080;28;20499;-49
2022/05/21 00:43:52;;;;;;;78.05;19.08;;;;;;;;;;5012441;28;20034;-48
2022/05/21 00:46:21;;;;;;;83.13;23.42;;;;;;;;;;5012221;28;20571;-49
2022/05/21 00:48:54;;;;;;;95.50;31.00;;;;;;;;;;5011661;28;20076;-51
2022/05/21 00:51:23;;;;;;;98.25;34.78;;;;;;;;;;5012091;28;20075;-51
2022/05/21 00:53:52;;;;;;;102.70;37.70;;;;;;;;;;5012567;28;20555;-47
2022/05/21 00:56:20;;;;;;;112.63;40.95;;;;;;;;;;5012911;28;20361;-47
2022/05/21 01:01:35;;;;;;;110.25;43.60;;;;;;;;;;5013372;28;20069;-51
2022/05/21 01:04:02;;;;;;;105.65;45.80;;;;;;;;;;5012266;28;20046;-51
2022/05/21 01:06:29;;;;;;;116.63;45.58;;;;;;;;;;5012261;28;20022;-46
2022/05/21 01:08:56;;;;;;;111.10;45.63;;;;;;;;;;5011665;28;20045;-49
2022/05/21 01:11:23;;;;;;;114.68;45.88;;;;;;;;;;5012439;28;20057;-50
2022/05/21 01:13:51;;;;;;;112.55;45.97;;;;;;;;;;5010530;28;20038;-50
2022/05/21 01:16:18;;;;;;;102.72;46.30;;;;;;;;;;5012501;28;20514;-49
2022/05/21 01:18:45;;;;;;;98.38;44.85;;;;;;;;;;5012190;28;20022;-50
2022/05/21 01:21:13;;;;;;;103.60;44.75;;;;;;;;;;5011362;28;20034;-48
2022/05/21 01:23:40;;;;;;;91.55;43.92;;;;;;;;;;5012383;28;20029;-49
2022/05/21 01:26:14;;;;;;;94.05;41.60;;;;;;;;;;5021250;28;20537;-49
2022/05/21 01:28:41;;;;;;;97.85;42.28;;;;;;;;;;5015934;28;20033;-48
2022/05/21 01:31:08;;;;;;;96.22;41.20;;;;;;;;;;5019056;28;20033;-49
2022/05/21 01:33:37;;;;;;;95.85;40.58;;;;;;;;;;5019012;28;20037;-50
2022/05/21 01:36:06;;;;;;;85.10;38.72;;;;;;;;;;5024743;28;20039;-47
2022/05/21 01:38:33;;;;;;;81.43;38.38;;;;;;;;;;5029957;28;20025;-52
2022/05/21 01:41:00;;;;;;;84.57;37.05;;;;;;;;;;5016128;28;20038;-52
2022/05/21 01:46:13;;;;;;;82.57;37.85;;;;;;;;;;5010187;28;20066;-51
2022/05/21 01:48:43;;;;;;;83.80;38.17;;;;;;;;;;5011927;28;20053;-48
2022/05/21 01:51:10;;;;;;;94.97;41.25;;;;;;;;;;5011900;28;20057;-48
2022/05/21 01:53:38;;;;;;;82.78;41.45;;;;;;;;;;5012057;28;20484;-51
2022/05/21 01:56:05;;;;;;;92.22;40.97;;;;;;;;;;5013791;28;20022;-47
2022/05/21 01:58:34;;;;;;;97.75;41.97;;;;;;;;;;5010852;28;20379;-46
2022/05/21 02:01:01;;;;;;;99.78;39.85;;;;;;;;;;5008812;28;20041;-49
2022/05/21 02:03:28;;;;;;;90.28;39.85;;;;;;;;;;5010443;28;20088;-48
2022/05/21 02:05:55;;;;;;;99.25;39.38;;;;;;;;;;5011049;28;20057;-50
2022/05/21 02:08:23;;;;;;;86.63;37.10;;;;;;;;;;5012181;28;20032;-47
2022/05/21 02:10:51;;;;;;;85.22;37.83;;;;;;;;;;5017657;28;20021;-46
2022/05/21 02:13:19;;;;;;;80.35;35.45;;;;;;;;;;5021068;28;20518;-49
2022/05/21 02:15:46;;;;;;;80.25;35.25;;;;;;;;;;5017970;28;20072;-49
2022/05/21 02:18:14;;;;;;;87.35;34.40;;;;;;;;;;5021334;28;20091;-49
2022/05/21 02:20:41;;;;;;;76.97;33.70;;;;;;;;;;5019718;28;20036;-48
2022/05/21 02:23:09;;;;;;;70.50;32.65;;;;;;;;;;5019690;28;20028;-51
2022/05/21 02:25:36;;;;;;;80.47;33.35;;;;;;;;;;5022453;28;20033;-50
2022/05/21 02:28:03;;;;;;;73.10;31.83;;;;;;;;;;5031424;28;20052;-47
2022/05/21 02:30:30;;;;;;;66.75;29.33;;;;;;;;;;5027758;28;20026;-48
2022/05/21 02:32:57;;;;;;;67.90;29.83;;;;;;;;;;5023439;28;20041;-51
2022/05/21 02:35:24;;;;;;;63.03;29.42;;;;;;;;;;5033461;28;20056;-47
2022/05/21 02:40:37;;;;;;;63.58;27.67;;;;;;;;;;5031993;28;20427;-47
2022/05/21 02:43:04;;;;;;;64.85;28.10;;;;;;;;;;4988539;28;20023;-50
2022/05/21 02:45:31;;;;;;;61.63;25.35;;;;;;;;;;4973224;28;20027;-48
2022/05/21 02:47:59;;;;;;;71.13;27.92;;;;;;;;;;4971398;28;20571;-49
2022/05/21 02:50:27;;;;;;;59.88;24.45;;;;;;;;;;4972910;28;20034;-51
2022/05/21 02:52:55;;;;;;;60.63;26.33;;;;;;;;;;4973364;28;20481;-50
2022/05/21 02:55:22;;;;;;;61.00;24.60;;;;;;;;;;4973222;28;20023;-48
2022/05/21 02:57:49;;;;;;;55.72;24.73;;;;;;;;;;4972339;28;20031;-48
2022/05/21 03:00:18;;;;;;;62.92;23.70;;;;;;;;;;4972724;28;20556;-52
2022/05/21 03:02:49;;;;;;;58.78;23.10;;;;;;;;;;4972910;28;20569;-48
2022/05/21 03:05:16;;;;;;;52.72;22.95;;;;;;;;;;4973283;28;20133;-48
2022/05/21 03:07:48;;;;;;;50.30;22.92;;;;;;;;;;4991311;28;20076;-49
2022/05/21 03:10:22;;;;;;;44.78;21.35;;;;;;;;;;5011794;28;20732;-48
2022/05/21 03:12:50;;;;;;;52.83;22.02;;;;;;;;;;5012181;28;20030;-47
2022/05/21 03:15:17;;;;;;;54.45;21.40;;;;;;;;;;5013604;28;20105;-48
2022/05/21 03:17:46;;;;;;;48.35;21.63;;;;;;;;;;5016251;28;20026;-46
2022/05/21 03:20:14;;;;;;;52.95;20.25;;;;;;;;;;5015057;28;20042;-53
2022/05/21 03:22:44;;;;;;;51.35;20.88;;;;;;;;;;5016066;28;20105;-48
2022/05/21 03:25:12;;;;;;;45.38;20.17;;;;;;;;;;5015911;28;20025;-46
2022/05/21 03:27:39;;;;;;;41.58;20.45;;;;;;;;;;5015299;28;20065;-48
2022/05/21 03:30:08;;;;;;;54.53;20.40;;;;;;;;;;5015061;28;20030;-47
2022/05/21 03:32:35;;;;;;;43.60;19.23;;;;;;;;;;5015351;28;20113;-46
2022/05/21 03:35:02;;;;;;;46.58;18.08;;;;;;;;;;5013822;28;20026;-47
2022/05/21 03:37:29;;;;;;;43.05;18.45;;;;;;;;;;5015784;28;20022;-50
2022/05/21 03:39:56;;;;;;;42.80;18.40;;;;;;;;;;5014665;28;20030;-46
2022/05/21 03:42:24;;;;;;;45.42;18.17;;;;;;;;;;5015385;28;20022;-49
2022/05/21 03:44:51;;;;;;;40.70;16.48;;;;;;;;;;5014745;28;20034;-49
2022/05/21 03:47:18;;;;;;;37.78;17.08;;;;;;;;;;5015249;28;20063;-49
2022/05/21 03:49:45;;;;;;;38.92;17.05;;;;;;;;;;5014991;28;20022;-48
2022/05/21 03:52:12;;;;;;;36.40;16.20;;;;;;;;;;5015501;28;20118;-49
2022/05/21 03:54:39;;;;;;;38.85;16.17;;;;;;;;;;5014807;28;20423;-46
2022/05/21 03:57:06;;;;;;;34.53;16.48;;;;;;;;;;5014533;28;20026;-50
2022/05/21 03:59:34;;;;;;;40.88;16.50;;;;;;;;;;5015049;28;20065;-46
2022/05/21 04:02:01;;;;;;;36.15;16.25;;;;;;;;;;5014287;28;20076;-48
2022/05/21 04:04:28;;;;;;;35.95;16.10;;;;;;;;;;5014935;28;20046;-50
2022/05/21 04:06:55;;;;;;;31.88;15.63;;;;;;;;;;5014580;28;20022;-48
2022/05/21 04:09:22;;;;;;;34.42;15.98;;;;;;;;;;5014807;28;20017;-47
2022/05/21 04:11:49;;;;;;;35.28;15.80;;;;;;;;;;5015000;28;20038;-47
2022/05/21 04:14:17;;;;;;;30.55;15.23;;;;;;;;;;5014143;28;20026;-48
2022/05/21 04:16:44;;;;;;;34.78;14.57;;;;;;;;;;5015059;28;20084;-50
2022/05/21 04:19:11;;;;;;;32.92;14.40;;;;;;;;;;5014326;28;20053;-48
2022/05/21 04:21:38;;;;;;;34.55;14.93;;;;;;;;;;5014542;28;20364;-50
2022/05/21 04:24:05;;;;;;;32.53;14.43;;;;;;;;;;5014969;28;20037;-47
2022/05/21 04:26:32;;;;;;;31.65;14.55;;;;;;;;;;5013190;28;20416;-49
2022/05/21 04:28:59;;;;;;;33.72;14.02;;;;;;;;;;5014273;28;20436;-47
2022/05/21 04:31:26;;;;;;;30.85;13.45;;;;;;;;;;5014458;28;20049;-48
2022/05/21 04:33:53;;;;;;;31.55;13.38;;;;;;;;;;5013747;28;20030;-47
2022/05/21 04:36:21;;;;;;;29.05;14.15;;;;;;;;;;5014817;28;20076;-49
2022/05/21 04:38:49;;;;;;;29.92;13.02;;;;;;;;;;5014072;28;20034;-48
2022/05/21 04:41:16;;;;;;;32.45;13.52;;;;;;;;;;5014381;28;20026;-48
2022/05/21 04:43:43;;;;;;;28.90;13.40;;;;;;;;;;5014700;28;20041;-49
2022/05/21 04:46:11;;;;;;;30.58;13.57;;;;;;;;;;5013383;28;20037;-47
2022/05/21 04:48:40;;;;;;;26.63;13.07;;;;;;;;;;5014488;28;20480;-51
2022/05/21 04:51:08;;;;;;;25.58;11.70;;;;;;;;;;5014185;28;20069;-51
2022/05/21 04:53:36;;;;;;;28.23;12.55;;;;;;;;;;5013646;28;20048;-48
2022/05/21 04:56:03;;;;;;;29.25;12.38;;;;;;;;;;5014077;28;20030;-50
2022/05/21 04:58:31;;;;;;;25.20;11.88;;;;;;;;;;5013735;28;20068;-47
2022/05/21 05:00:58;;;;;;;23.88;12.02;;;;;;;;;;5012651;28;20026;-48
2022/05/21 05:03:25;;;;;;;26.95;12.57;;;;;;;;;;5013359;28;20540;-49
2022/05/21 05:05:53;;;;;;;26.10;12.15;;;;;;;;;;5014068;28;20022;-48
2022/05/21 05:08:20;;;;;;;25.77;10.95;;;;;;;;;;5013767;28;20021;-49
2022/05/21 05:10:48;;;;;;;31.92;11.77;;;;;;;;;;5014191;28;20030;-48
2022/05/21 05:13:16;;;;;;;24.98;11.38;;;;;;;;;;5013368;28;20072;-49
2022/05/21 05:15:49;;;;;;;25.15;10.70;;;;;;;;;;5012418;28;20034;-48
2022/05/21 05:18:23;;;;;;;21.60;10.93;;;;;;;;;;5013507;28;20022;-47
2022/05/21 05:20:51;;;;;;;20.88;11.05;;;;;;;;;;5013369;28;20492;-48
2022/05/21 05:23:18;;;;;;;22.05;11.30;;;;;;;;;;5013933;28;20026;-50
2022/05/21 05:25:45;;;;;;;24.27;10.65;;;;;;;;;;5013027;28;20030;-48
2022/05/21 05:28:20;;;;;;;23.33;10.30;;;;;;;;;;5013563;28;20021;-51
2022/05/21 05:30:47;;;;;;;22.52;10.63;;;;;;;;;;5013313;28;20022;-51
2022/05/21 05:33:15;;;;;;;22.67;10.70;;;;;;;;;;5013079;28;20042;-48
2022/05/21 05:35:42;;;;;;;21.25;11.07;;;;;;;;;;5013017;28;20052;-49
2022/05/21 05:38:10;;;;;;;22.98;10.60;;;;;;;;;;5012472;28;20022;-48
2022/05/21 05:40:37;;;;;;;18.27;10.02;;;;;;;;;;5013594;28;20038;-54
2022/05/21 05:43:04;;;;;;;24.50;10.25;;;;;;;;;;5012600;28;20037;-49
2022/05/21 05:45:31;;;;;;;19.08;10.48;;;;;;;;;;5013317;28;20064;-49
2022/05/21 05:47:58;;;;;;;22.90;10.75;;;;;;;;;;5013319;28;20026;-52
2022/05/21 05:50:26;;;;;;;21.33;10.25;;;;;;;;;;5012245;28;20041;-51
2022/05/21 05:52:53;;;;;;;18.55;10.30;;;;;;;;;;5013171;28;20570;-47
2022/05/21 05:55:20;;;;;;;17.45;9.63;;;;;;;;;;5012340;28;20022;-51
2022/05/21 05:57:51;;;;;;;20.90;9.98;;;;;;;;;;5013365;28;20037;-49
2022/05/21 06:00:18;;;;;;;17.15;9.45;;;;;;;;;;5013193;28;20022;-52
2022/05/21 06:03:04;;;;;;;19.30;9.65;;;;;;;;;;5012445;28;20026;-49
2022/05/21 06:05:32;;;;;;;18.55;9.15;;;;;;;;;;5012043;28;20604;-48
2022/05/21 06:08:04;;;;;;;20.08;9.23;;;;;;;;;;5013135;28;20076;-50
2022/05/21 06:10:33;;;;;;;18.88;9.40;;;;;;;;;;5012741;28;20050;-53
2022/05/21 06:13:00;;;;;;;14.00;8.82;;;;;;;;;;5012446;28;20030;-47
2022/05/21 06:15:27;;;;;;;17.33;9.45;;;;;;;;;;5013092;28;20018;-52
2022/05/21 06:17:54;;;;;;;19.38;9.52;;;;;;;;;;5012047;28;20028;-47
2022/05/21 06:20:23;;;;;;;20.00;9.95;;;;;;;;;;5011560;28;20057;-47
2022/05/21 06:22:50;;;;;;;17.23;8.85;;;;;;;;;;5012845;28;20780;-51
2022/05/21 06:25:19;;;;;;;21.65;9.15;;;;;;;;;;5012452;28;20034;-49
2022/05/21 06:27:49;;;;;;;16.98;8.45;;;;;;;;;;5012652;28;20022;-48
2022/05/21 06:30:17;;;;;;;19.08;9.52;;;;;;;;;;5011757;28;20105;-50
2022/05/21 06:32:44;;;;;;;13.45;8.30;;;;;;;;;;5012434;28;20503;-51
2022/05/21 06:35:13;;;;;;;16.17;9.15;;;;;;;;;;5012208;28;20484;-48
2022/05/21 06:37:40;;;;;;;15.75;8.43;;;;;;;;;;5012530;28;20030;-50
2022/05/21 06:40:08;;;;;;;17.23;7.43;;;;;;;;;;5011982;28;20037;-47
2022/05/21 06:42:35;;;;;;;15.98;7.90;;;;;;;;;;5012273;28;20026;-51
2022/05/21 06:45:02;;;;;;;16.60;8.32;;;;;;;;;;5012281;28;20034;-50
2022/05/21 06:47:29;;;;;;;13.57;8.05;;;;;;;;;;5011701;28;20026;-46
2022/05/21 06:49:57;;;;;;;16.42;8.35;;;;;;;;;;5013944;28;20415;-53
2022/05/21 06:52:24;;;;;;;14.50;7.47;;;;;;;;;;5016059;28;20029;-50
2022/05/21 06:54:51;;;;;;;12.85;7.40;;;;;;;;;;5016798;28;20061;-46
2022/05/21 06:57:19;;;;;;;15.30;7.80;;;;;;;;;;5015779;28;20101;-51
2022/05/21 06:59:46;;;;;;;14.85;8.00;;;;;;;;;;5015967;28;20026;-49
2022/05/21 07:02:13;;;;;;;13.25;7.25;;;;;;;;;;5016280;28;20026;-48
2022/05/21 07:07:34;;;;;;;16.27;7.63;;;;;;;;;;5004100;28;20519;-46
2022/05/21 07:10:09;;;;;;;13.95;7.25;;;;;;;;;;5016300;28;20046;-52
2022/05/21 07:12:36;;;;;;;11.18;7.20;;;;;;;;;;5015382;28;20105;-51
2022/05/21 07:15:05;;;;;;;14.20;7.22;;;;;;;;;;5016342;28;20052;-48
2022/05/21 07:17:32;;;;;;;13.90;7.22;;;;;;;;;;5015653;28;20046;-49
2022/05/21 07:19:59;;;;;;;13.30;6.80;;;;;;;;;;5016065;28;20033;-49
2022/05/21 07:22:26;;;;;;;14.23;7.03;;;;;;;;;;5015320;28;20034;-49
2022/05/21 07:24:53;;;;;;;14.27;6.60;;;;;;;;;;5015841;28;20040;-49
2022/05/21 07:27:20;;;;;;;13.85;6.97;;;;;;;;;;5015240;28;20399;-48
2022/05/21 07:29:47;;;;;;;10.55;6.68;;;;;;;;;;5015680;28;20033;-48
2022/05/21 07:32:19;;;;;;;11.70;6.47;;;;;;;;;;5015365;28;20038;-47
2022/05/21 07:34:46;;;;;;;13.15;6.78;;;;;;;;;;5015723;28;20034;-47
2022/05/21 07:37:13;;;;;;;11.73;6.82;;;;;;;;;;5015248;28;20552;-50
2022/05/21 07:39:41;;;;;;;14.05;7.13;;;;;;;;;;5014859;28;20026;-48
2022/05/21 07:42:08;;;;;;;11.32;6.72;;;;;;;;;;5015691;28;20030;-51
2022/05/21 07:44:35;;;;;;;11.23;6.20;;;;;;;;;;5015527;28;20557;-50
2022/05/21 07:47:02;;;;;;;12.27;6.78;;;;;;;;;;5015575;28;20029;-49
2022/05/21 07:49:29;;;;;;;11.48;6.55;;;;;;;;;;5014894;28;20018;-50
2022/05/21 07:51:59;;;;;;;11.10;6.30;;;;;;;;;;5015483;28;20029;-47
2022/05/21 07:54:26;;;;;;;13.57;6.65;;;;;;;;;;5014946;28;20400;-49
2022/05/21 07:56:53;;;;;;;10.50;6.18;;;;;;;;;;5015157;28;20033;-48
2022/05/21 07:59:20;;;;;;;11.20;6.15;;;;;;;;;;5015437;28;20030;-48
2022/05/21 08:01:48;;;;;;;11.82;6.30;;;;;;;;;;5013806;28;20455;-49
2022/05/21 08:04:17;;;;;;;12.40;6.70;;;;;;;;;;5014484;28;20539;-51
2022/05/21 08:06:44;;;;;;;11.88;6.22;;;;;;;;;;5015222;28;20400;-50
2022/05/21 08:09:11;;;;;;;10.70;6.28;;;;;;;;;;5015410;28;20547;-48
2022/05/21 08:11:38;;;;;;;11.25;6.30;;;;;;;;;;5014201;28;20022;-49
2022/05/21 08:14:05;;;;;;;14.10;6.82;;;;;;;;;;5014073;28;20372;-50
2022/05/21 08:16:32;;;;;;;12.85;6.13;;;;;;;;;;5013448;28;20026;-47
2022/05/21 08:19:01;;;;;;;12.18;6.07;;;;;;;;;;5014815;28;20557;-48
2022/05/21 08:21:28;;;;;;;10.73;5.90;;;;;;;;;;5014855;28;20037;-48
2022/05/21 08:29:30;;;;;;;11.98;6.28;;;;;;;;;;5014196;28;20115;-49
2022/05/21 08:31:57;;;;;;;11.43;6.60;;;;;;;;;;5014817;28;20032;-47
2022/05/21 08:34:25;;;;;;;11.18;6.07;;;;;;;;;;5014064;28;20113;-48
2022/05/21 08:36:53;;;;;;;12.82;6.57;;;;;;;;;;5013745;28;20534;-50
2022/05/21 08:39:21;;;;;;;10.27;6.22;;;;;;;;;;5014950;28;20120;-47
2022/05/21 08:41:52;;;;;;;11.77;6.57;;;;;;;;;;5014595;28;20022;-51
2022/05/21 08:44:35;;;;;;;13.45;6.60;;;;;;;;;;5013932;28;20026;-49
2022/05/21 08:47:05;;;;;;;12.68;6.53;;;;;;;;;;5013614;28;20030;-50
2022/05/21 08:49:55;;;;;;;10.65;6.25;;;;;;;;;;5014528;28;20488;-48
2022/05/21 08:52:37;;;;;;;13.30;6.63;;;;;;;;;;5003936;28;20034;-50
2022/05/21 08:55:05;;;;;;;9.70;6.28;;;;;;;;;;5014381;28;20037;-48
2022/05/21 08:57:49;;;;;;;12.50;6.13;;;;;;;;;;5014587;28;20412;-47
2022/05/21 09:00:20;;;;;;;10.82;5.97;;;;;;;;;;5012537;28;20058;-46
2022/05/21 09:02:47;;;;;;;10.32;5.93;;;;;;;;;;5013944;28;20054;-51
2022/05/21 09:05:15;;;;;;;12.13;6.22;;;;;;;;;;5013909;28;20038;-49
2022/05/21 09:08:03;;;;;;;10.23;6.40;;;;;;;;;;5013456;28;20037;-49
2022/05/21 09:10:55;;;;;;;9.32;5.68;;;;;;;;;;5014082;28;20034;-49
2022/05/21 09:13:24;;;;;;;10.65;5.43;;;;;;;;;;5010119;28;20069;-48
2022/05/21 09:18:36;;;;;;;12.10;6.43;;;;;;;;;;5013605;28;20515;-48
2022/05/21 09:21:03;;;;;;;11.10;6.15;;;;;;;;;;5013250;28;20026;-49
2022/05/21 09:23:53;;;;;;;10.05;6.25;;;;;;;;;;5013724;28;20053;-49
2022/05/21 09:26:22;;;;;;;10.40;5.75;;;;;;;;;;5003399;28;20034;-45
2022/05/21 09:28:49;;;;;;;9.73;5.97;;;;;;;;;;5012945;28;20022;-48
2022/05/21 09:31:36;;;;;;;8.95;5.70;;;;;;;;;;5013810;28;20021;-48
2022/05/21 09:34:36;;;;;;;10.82;5.78;;;;;;;;;;5013028;28;20104;-51
2022/05/21 09:37:03;;;;;;;9.30;5.70;;;;;;;;;;4970911;28;20092;-47
2022/05/21 09:39:37;;;;;;;11.55;6.03;;;;;;;;;;5012892;28;20029;-48
2022/05/21 09:45:25;;;;;;;8.73;5.25;;;;;;;;;;5013591;28;20045;-47
2022/05/21 09:48:07;;;;;;;10.05;5.72;;;;;;;;;;5012647;28;20037;-49
2022/05/21 09:50:46;;;;;;;10.88;5.80;;;;;;;;;;5011733;28;20495;-47
2022/05/21 09:53:34;;;;;;;8.82;5.40;;;;;;;;;;5012731;28;20050;-51
2022/05/21 09:56:06;;;;;;;10.88;5.20;;;;;;;;;;5013519;28;20028;-47
2022/05/21 09:58:35;;;;;;;11.05;5.72;;;;;;;;;;5012437;28;20395;-51
2022/05/21 10:01:02;;;;;;;14.52;6.00;;;;;;;;;;5013313;28;20133;-52
2022/05/21 10:03:40;;;;;;;11.98;5.82;;;;;;;;;;5012758;28;20030;-50
2022/05/21 10:06:15;;;;;;;12.07;6.05;;;;;;;;;;5011389;28;20042;-47
2022/05/21 10:11:35;;;;;;;10.25;5.18;;;;;;;;;;5011955;28;20060;-50
2022/05/21 10:14:04;;;;;;;12.85;5.50;;;;;;;;;;5012964;28;20117;-50
2022/05/21 10:16:54;;;;;;;7.30;4.78;;;;;;;;;;5012143;28;20476;-51
2022/05/21 10:19:34;;;;;;;14.57;5.30;;;;;;;;;;5002242;28;20057;-48
2022/05/21 10:22:10;;;;;;;10.23;5.20;;;;;;;;;;5005748;28;20124;-50
2022/05/21 10:24:56;;;;;;;9.68;4.82;;;;;;;;;;5006519;28;20033;-47
2022/05/21 10:27:26;;;;;;;9.40;5.00;;;;;;;;;;4985293;28;20046;-50
2022/05/21 10:29:59;;;;;;;11.32;5.30;;;;;;;;;;4985194;28;20042;-46
2022/05/21 10:32:46;;;;;;;12.70;5.47;;;;;;;;;;5003273;28;20061;-50
2022/05/21 10:35:31;;;;;;;8.95;4.60;;;;;;;;;;4991613;28;20500;-49
2022/05/21 10:38:02;;;;;;;8.32;4.72;;;;;;;;;;4987393;28;20030;-48
2022/05/21 10:40:36;;;;;;;10.68;5.47;;;;;;;;;;4972764;28;20038;-50
2022/05/21 10:43:03;;;;;;;12.05;5.15;;;;;;;;;;4972691;28;20027;-48
2022/05/21 10:45:33;;;;;;;15.75;5.47;;;;;;;;;;4972880;28;20023;-51
2022/05/21 10:48:12;;;;;;;11.13;4.50;;;;;;;;;;4973442;28;20031;-47
2022/05/21 10:50:39;;;;;;;11.52;5.13;;;;;;;;;;4973129;28;20409;-54
2022/05/21 10:53:16;;;;;;;12.32;4.72;;;;;;;;;;4972751;28;20520;-52
2022/05/21 10:55:50;;;;;;;9.90;4.78;;;;;;;;;;4972642;28;20121;-48
2022/05/21 10:58:24;;;;;;;10.82;5.10;;;;;;;;;;4973021;28;20163;-47
2022/05/21 11:00:59;;;;;;;9.55;4.93;;;;;;;;;;4973277;28;20029;-47
2022/05/21 11:03:34;;;;;;;12.70;5.05;;;;;;;;;;4972674;28;20034;-49
2022/05/21 11:06:09;;;;;;;9.98;4.72;;;;;;;;;;4973047;28;20027;-47
2022/05/21 11:08:36;;;;;;;12.88;4.82;;;;;;;;;;4973139;28;20031;-50
2022/05/21 11:11:06;;;;;;;8.48;4.85;;;;;;;;;;4972921;28;20033;-48
2022/05/21 11:13:45;;;;;;;10.43;4.75;;;;;;;;;;4972558;28;20035;-48
2022/05/21 11:16:15;;;;;;;9.25;4.55;;;;;;;;;;4972937;28;20031;-50
2022/05/21 11:18:51;;;;;;;9.07;4.15;;;;;;;;;;4973013;28;20031;-50
2022/05/21 11:21:37;;;;;;;8.02;4.18;;;;;;;;;;4972394;28;20400;-49
2022/05/21 11:24:19;;;;;;;10.50;4.60;;;;;;;;;;4972792;28;20038;-47
2022/05/21 11:26:46;;;;;;;10.10;4.50;;;;;;;;;;4972507;28;20042;-48
2022/05/21 11:29:13;;;;;;;11.65;4.50;;;;;;;;;;4973037;28;20042;-50
2022/05/21 11:37:52;;;;;;;7.90;5.05;;;;;;;;;;4995631;28;20045;-50
2022/05/21 11:40:37;;;;;;;8.90;4.20;;;;;;;;;;4995803;28;20157;-51
2022/05/21 11:43:04;;;;;;;9.18;4.07;;;;;;;;;;4995582;28;20037;-47
2022/05/21 11:45:31;;;;;;;14.07;4.10;;;;;;;;;;4995502;28;20030;-46
2022/05/21 11:48:19;;;;;;;8.32;3.90;;;;;;;;;;4995890;28;20038;-47
2022/05/21 11:51:05;;;;;;;7.05;3.60;;;;;;;;;;4995805;28;20023;-47
2022/05/21 11:53:39;;;;;;;8.98;4.03;;;;;;;;;;4995240;28;20046;-46
2022/05/21 11:56:08;;;;;;;9.38;4.20;;;;;;;;;;4995109;28;20045;-49
2022/05/21 11:59:07;;;;;;;8.15;3.65;;;;;;;;;;4994895;28;20098;-50
2022/05/21 12:01:40;;;;;;;8.77;3.38;;;;;;;;;;4963054;28;20511;-46
2022/05/21 12:04:27;;;;;;;11.70;4.03;;;;;;;;;;4995411;28;20053;-48
2022/05/21 12:06:54;;;;;;;11.35;4.18;;;;;;;;;;4965436;28;20404;-51
2022/05/21 12:09:34;;;;;;;12.43;3.95;;;;;;;;;;4994424;28;20034;-50
2022/05/21 12:12:19;;;;;;;8.95;3.90;;;;;;;;;;4994849;28;20138;-47
2022/05/21 12:15:13;;;;;;;9.88;3.95;;;;;;;;;;4994759;28;20469;-52
2022/05/21 12:17:52;;;;;;;12.25;4.05;;;;;;;;;;4995008;28;20026;-48
2022/05/21 12:20:37;;;;;;;7.22;3.35;;;;;;;;;;4994218;28;20387;-46
2022/05/21 12:23:04;;;;;;;7.57;3.50;;;;;;;;;;5004830;28;20097;-51
2022/05/21 12:25:54;;;;;;;10.98;4.07;;;;;;;;;;5003657;28;20484;-46
2022/05/21 12:28:41;;;;;;;12.02;3.67;;;;;;;;;;4991992;28;20117;-49
2022/05/21 12:31:09;;;;;;;11.48;3.40;;;;;;;;;;4994604;28;20038;-49
2022/05/21 12:33:38;;;;;;;10.32;3.92;;;;;;;;;;4994152;28;20044;-46
2022/05/21 12:36:18;;;;;;;13.18;3.67;;;;;;;;;;4994686;28;20381;-46
2022/05/21 12:38:46;;;;;;;15.88;3.92;;;;;;;;;;4994794;28;20070;-47
2022/05/21 12:41:20;;;;;;;15.07;3.63;;;;;;;;;;4993857;28;20038;-47
2022/05/21 12:43:52;;;;;;;11.75;3.78;;;;;;;;;;4994114;28;20113;-46
2022/05/21 12:46:22;;;;;;;11.77;3.53;;;;;;;;;;4993508;28;20512;-51
2022/05/21 12:48:49;;;;;;;11.80;3.75;;;;;;;;;;4993425;28;20038;-50
2022/05/21 12:51:28;;;;;;;10.70;3.28;;;;;;;;;;4994511;28;20046;-50
2022/05/21 12:53:56;;;;;;;8.90;3.47;;;;;;;;;;4993317;28;20463;-46
2022/05/21 12:56:26;;;;;;;6.65;3.40;;;;;;;;;;4994543;28;20026;-47
2022/05/21 12:59:12;;;;;;;12.18;3.20;;;;;;;;;;4993726;28;20481;-48
2022/05/21 13:01:46;;;;;;;6.25;3.20;;;;;;;;;;4994085;28;20074;-45
2022/05/21 13:04:31;;;;;;;7.97;3.25;;;;;;;;;;4994142;28;20046;-46
2022/05/21 13:07:11;;;;;;;6.63;3.05;;;;;;;;;;4994134;28;20382;-46
2022/05/21 13:09:39;;;;;;;11.65;3.20;;;;;;;;;;4993674;28;20022;-49
2022/05/21 13:12:14;;;;;;;11.43;3.25;;;;;;;;;;4993053;28;20464;-48
2022/05/21 13:14:42;;;;;;;9.38;3.28;;;;;;;;;;4993805;28;20678;-47
2022/05/21 13:17:17;;;;;;;5.20;2.70;;;;;;;;;;4993889;28;20030;-47
2022/05/21 13:19:55;;;;;;;5.00;2.38;;;;;;;;;;4993071;28;20502;-47
2022/05/21 13:22:30;;;;;;;8.77;2.50;;;;;;;;;;4994014;28;20439;-47
2022/05/21 13:25:00;;;;;;;5.88;2.67;;;;;;;;;;4992929;28;20124;-46
2022/05/21 13:27:27;;;;;;;11.10;2.92;;;;;;;;;;4993945;28;20029;-46
2022/05/21 13:29:55;;;;;;;11.50;2.83;;;;;;;;;;4993544;28;20177;-46
2022/05/21 13:32:25;;;;;;;9.13;2.92;;;;;;;;;;4993047;28;20037;-45
2022/05/21 13:34:54;;;;;;;7.65;2.63;;;;;;;;;;4993577;28;20046;-46
2022/05/21 13:37:26;;;;;;;7.43;2.60;;;;;;;;;;4992659;28;20054;-48
2022/05/21 13:40:07;;;;;;;8.40;2.92;;;;;;;;;;4993736;28;20109;-49
2022/05/21 13:42:36;;;;;;;7.27;2.40;;;;;;;;;;4992187;28;20030;-48
2022/05/21 13:45:12;;;;;;;6.35;2.83;;;;;;;;;;4992859;28;20027;-46
2022/05/21 13:47:41;;;;;;;6.18;2.60;;;;;;;;;;4993603;28;20268;-47
2022/05/21 13:50:09;;;;;;;7.25;2.30;;;;;;;;;;4992460;28;20066;-47
2022/05/21 13:52:37;;;;;;;7.88;2.20;;;;;;;;;;4993411;28;20392;-47
2022/05/21 13:55:06;;;;;;;5.03;2.35;;;;;;;;;;4992485;28;20048;-49
2022/05/21 13:57:34;;;;;;;3.88;2.45;;;;;;;;;;4992772;28;20038;-47
2022/05/21 14:00:06;;;;;;;5.50;1.95;;;;;;;;;;4992514;28;20400;-48
2022/05/21 14:02:39;;;;;;;6.78;2.28;;;;;;;;;;4992116;28;20033;-46
2022/05/21 14:05:24;;;;;;;5.63;2.13;;;;;;;;;;4992695;28;20504;-46
2022/05/21 14:08:17;;;;;;;6.32;2.30;;;;;;;;;;4992710;28;20105;-47
2022/05/21 14:10:49;;;;;;;6.10;2.17;;;;;;;;;;4962801;28;20120;-47
2022/05/21 14:13:34;;;;;;;5.75;2.10;;;;;;;;;;4992788;28;20180;-47
2022/05/21 14:16:09;;;;;;;7.20;2.17;;;;;;;;;;4992854;28;20076;-47
2022/05/21 14:18:43;;;;;;;7.57;2.47;;;;;;;;;;4992650;28;20380;-46
2022/05/21 14:21:26;;;;;;;6.97;2.40;;;;;;;;;;4993286;28;20026;-46
2022/05/21 14:24:14;;;;;;;9.60;2.50;;;;;;;;;;4992225;28;20034;-47
2022/05/21 14:26:52;;;;;;;15.60;3.40;;;;;;;;;;4993079;28;20026;-46
2022/05/21 14:29:32;;;;;;;9.07;2.72;;;;;;;;;;4992221;28;20109;-47
2022/05/21 14:32:18;;;;;;;15.77;2.72;;;;;;;;;;4993042;28;20476;-47
2022/05/21 14:34:45;;;;;;;10.35;2.60;;;;;;;;;;4992784;28;20030;-45
2022/05/21 14:37:26;;;;;;;8.60;2.75;;;;;;;;;;4994031;28;20089;-46
2022/05/21 14:39:53;;;;;;;11.15;2.90;;;;;;;;;;4993233;28;20029;-45
2022/05/21 14:42:21;;;;;;;8.75;2.20;;;;;;;;;;4992633;28;20042;-49
2022/05/21 14:44:48;;;;;;;12.63;3.13;;;;;;;;;;4992440;28;20066;-46
2022/05/21 14:52:52;;;;;;;13.77;3.35;;;;;;;;;;4992370;28;20060;-46
2022/05/21 14:55:24;;;;;;;13.10;3.33;;;;;;;;;;4992918;28;20042;-46
2022/05/21 14:57:51;;;;;;;10.35;2.58;;;;;;;;;;4992013;28;20446;-46
2022/05/21 15:00:19;;;;;;;15.02;3.30;;;;;;;;;;4991897;28;20053;-46
2022/05/21 15:02:46;;;;;;;10.90;3.13;;;;;;;;;;4991490;28;20117;-46
2022/05/21 15:05:13;;;;;;;10.27;2.50;;;;;;;;;;4991646;28;20069;-46
2022/05/21 15:07:46;;;;;;;10.68;2.90;;;;;;;;;;4992370;28;20435;-48
2022/05/21 15:10:17;;;;;;;11.88;3.15;;;;;;;;;;4992839;28;20041;-47
2022/05/21 15:12:44;;;;;;;11.40;3.10;;;;;;;;;;4996257;28;20109;-47
2022/05/21 15:15:13;;;;;;;9.20;2.67;;;;;;;;;;4995964;28;20050;-46
2022/05/21 15:17:40;;;;;;;12.18;2.78;;;;;;;;;;4996172;28;20042;-46
2022/05/21 15:20:07;;;;;;;10.80;2.45;;;;;;;;;;4996520;28;20026;-49
2022/05/21 15:22:36;;;;;;;9.27;2.60;;;;;;;;;;4995567;28;20448;-49
2022/05/21 15:25:04;;;;;;;7.80;2.65;;;;;;;;;;4996127;28;20041;-49